AirNav   TITAN Aviation Fuels
 
 1089 users online  

CO31 Rose Medical Center / HCA HealthONE Heliport
Denver, Colorado, USA

GOING TO DENVER?


FAA INFORMATION EFFECTIVE 08 SEPTEMBER 2022

Location

FAA Identifier: CO31
Lat/Long: 39-43-58.2300N 104-55-58.3100W
39-43.970500N 104-55.971833W
39.7328417,-104.9328639
(estimated)
Elevation: 5383 ft. / 1641 m (estimated)
Variation: 11E (1985)
Time zone: UTC -6 (UTC -7 during Standard Time)
Zip code: 80220

Heliport Operations

Heliport use: Private use. Permission required prior to landing
Activation date: 08/1976
Control tower: no
ARTCC: DENVER CENTER
FSS: DENVER FLIGHT SERVICE STATION
Attendance: CONTINUOUS
Wind indicator: yes
Segmented circle: no

Heliport Communications

WX ASOS at APA (10 nm S): PHONE 720-873-2799
WX AWOS-3 at BJC (14 nm NW): PHONE 720-887-8067
WX ASOS at DEN (14 nm NE): PHONE 303-342-1920
WX AWOS-3 at EIK (17 nm N): 133.825 (303-604-4339)
WX AWOS-3 at CFO (18 nm E): 119.025 (303-261-9104)

Nearby radio navigation aids

VOR radial/distance  VOR name  Freq  Var
DENr241/13.4DENVER VOR/DME117.9008E
BJCr128/14.4JEFFCO VOR/DME115.4011E
FQFr269/14.6FALCON VORTAC116.3011E
DVVr228/17.2MILE HIGH VORTAC114.7008E

Heliport Services

Runway Information

Helipad H1

Dimensions: 40 x 40 ft. / 12 x 12 m
Surface: concrete
ROOFTOP.
Latitude: 39-43.970500N
Longitude: 104-55.971833W
Elevation: 5383.0 ft.
Traffic pattern: leftleft

Heliport Ownership and Management from official FAA records

Ownership: Privately-owned
Owner: ROSE MEDICAL CENTER/ HCA HEALTHONE
4567 E 9TH AVE
DENVER, CO 80220
Phone 303-320-2121
Manager: VIC VIGIL
4567 E 9TH AVE
DENVER, CO 80220
Phone 303-320-2132
KAT KEMPER 303-320-2025

Additional Remarks

FOR CD CTC DENVER APCH AT 303-342-1916.

Instrument Procedures

There are no published instrument procedures at CO31.

Some nearby airports with instrument procedures:

KBKF - Buckley Space Force Base (9 nm E)
KAPA - Centennial Airport (10 nm S)
KBJC - Rocky Mountain Metro Airport (14 nm NW)
KDEN - Denver International Airport (14 nm NE)
KEIK - Erie Municipal Airport (17 nm N)
KCFO - Colorado Air and Space Port Airport (18 nm E)
 
Loc | Ops | Rwys | IFR | FBO | Links
Com | Nav | Svcs | Stats | Notes

AirBoss

 
Area around CO31 (Rose Medical Center / HCA HealthONE Heliport)
 
Road maps at: MapQuest Bing Google
 
Aerial photo
No photo
 
Sectional chart

 
Airport distance calculator
Flying to Rose Medical Center / HCA HealthONE Heliport? Find the distance to fly.

From to CO31

Sunrise and sunset
Times for 24-Sep-2022
 Local
(UTC-6)
 Zulu
(UTC)
Morning civil twilight06:2312:23
Sunrise06:5012:50
Sunset18:5300:53
Evening civil twilight19:2001:20

Current date and time
Zulu (UTC)  24-Sep-2022 22:35:54
Local (UTC-6)  24-Sep-2022 16:35:54
 
METAR
KBKF 
8nm E 
242158Z 01008KT 10SM FEW100 28/M04 A3019 RMK AO2A SLP157 T02761044
KAPA 
11nm S 
242153Z 03008KT 10SM CLR 26/M04 A3020 RMK AO2 SLP173 T02611044
KBJC 
14nm NW 
242145Z VRB04KT 10SM SKC 27/M03 A3020
KDEN 
14nm NE 
242153Z VRB05KT 10SM FEW100 27/M05 A3018 RMK AO2 SLP148 T02671050
KEIK 
17nm N 
242215Z AUTO 00000KT 10SM CLR 28/M05 A3016 RMK AO2 T02751048 PWINO
KCFO 
18nm E 
242047Z 34006KT 10SM SKC 29/M09 A3020
TAF
KBKF 
8nm E 
241700Z 2417/2523 VRB06KT 9999 SKC 510023 QNH3021INS TX24/2422Z TN07/2512Z
KAPA 
11nm S 
241740Z 2418/2518 VRB05KT P6SM FEW100 FEW220 FM242200 08006KT P6SM FEW220 FM250700 01006KT P6SM FEW220 FM251100 19006KT P6SM SKC FM251700 04006KT P6SM SKC
KBJC 
14nm NW 
241740Z 2418/2518 VRB03KT P6SM SKC FM241900 07007KT P6SM SKC FM250500 35005KT P6SM SKC
KDEN 
14nm NE 
242032Z 2421/2524 01009KT P6SM FEW100 FEW220 FM242230 04010KT P6SM FEW100 FEW220 FM250000 09006KT P6SM FEW220 FM250600 01006KT P6SM FEW220 FM251000 20006KT P6SM SKC FM251700 02007KT P6SM SKC FM252000 07007KT P6SM FEW120
NOTAMs
Click for the latest NOTAMs
NOTAMs are issued by the DoD/FAA and will open in a separate window not controlled by AirNav.

 

 
 

Would you like to see your business listed on this page?

 If your business provides an interesting product or service to pilots, flight crews, aircraft, or users of the Rose Medical Center / HCA HealthONE Heliport, you should consider listing it here.  To start the listing process, click on the button below
 
Add a business
 

Other Pages about Rose Medical Center / HCA HealthONE Heliport

Update a link
 
Copyright © AirNav, LLC. All rights reserved. Privacy Policy  Contact